createdAt,value
2019-03-20T00:00:30.924Z,15.47
2019-03-20T00:54:26.477Z,8.63
2019-03-20T00:56:55.934Z,12.23
2019-03-20T00:59:25.399Z,18.12
2019-03-20T01:01:54.775Z,13.88
2019-03-20T01:04:24.184Z,19.15
2019-03-20T01:06:53.641Z,14.30
2019-03-20T01:09:23.104Z,11.47
2019-03-20T01:11:53.283Z,11.02
2019-03-20T01:14:23.273Z,10.50
2019-03-20T01:16:53.680Z,11.36
2019-03-20T01:19:23.773Z,13.53
2019-03-20T01:21:54.166Z,13.22
2019-03-20T01:24:24.410Z,9.23
2019-03-20T01:26:54.659Z,12.60
2019-03-20T01:29:24.897Z,11.85
2019-03-20T01:31:55.110Z,9.85
2019-03-20T01:34:25.313Z,10.08
2019-03-20T01:36:55.754Z,8.98
2019-03-20T01:39:25.983Z,8.85
2019-03-20T01:41:56.405Z,9.56
2019-03-20T01:44:26.441Z,8.78
2019-03-20T01:46:55.821Z,9.40
2019-03-20T01:49:25.225Z,12.53
2019-03-20T01:51:54.626Z,9.40
2019-03-20T01:54:24.008Z,8.78
2019-03-20T01:56:53.375Z,9.98
2019-03-20T01:59:23.798Z,9.10
2019-03-20T02:01:53.191Z,13.80
2019-03-20T02:04:22.559Z,10.05
2019-03-20T02:06:52.018Z,10.32
2019-03-20T02:09:21.395Z,12.60
2019-03-20T02:11:50.780Z,10.03
2019-03-20T02:14:20.602Z,13.10
2019-03-20T02:16:49.969Z,9.23
2019-03-20T02:19:19.348Z,11.18
2019-03-20T02:21:49.500Z,13.45
2019-03-20T02:24:19.794Z,12.03
2019-03-20T02:26:49.926Z,12.43
2019-03-20T02:29:20.367Z,16.95
2019-03-20T02:31:50.623Z,10.35
2019-03-20T02:34:21.076Z,13.52
2019-03-20T02:36:51.259Z,18.73
2019-03-20T02:39:21.507Z,12.47
2019-03-20T02:41:52.193Z,11.53
2019-03-20T02:44:22.078Z,13.68
2019-03-20T02:46:52.272Z,10.50
2019-03-20T02:49:22.650Z,9.54
2019-03-20T02:51:52.819Z,11.30
2019-03-20T02:54:22.212Z,15.90
2019-03-20T02:56:51.598Z,10.35
2019-03-20T02:59:21.248Z,11.18
2019-03-20T03:01:50.634Z,8.83
2019-03-20T03:04:20.023Z,8.58
2019-03-20T03:06:49.470Z,11.00
2019-03-20T03:09:18.920Z,7.80
2019-03-20T03:11:48.309Z,9.10
2019-03-20T03:14:17.979Z,6.17
2019-03-20T03:16:47.355Z,13.20
2019-03-20T03:19:16.760Z,8.85
2019-03-20T03:21:46.288Z,9.65
2019-03-20T03:24:15.642Z,8.65
2019-03-20T03:26:45.560Z,9.90
2019-03-20T03:29:14.951Z,5.85
2019-03-20T03:31:44.322Z,7.00
2019-03-20T03:34:13.712Z,8.85
2019-03-20T03:36:43.156Z,5.85
2019-03-20T03:39:12.544Z,15.10
2019-03-20T03:41:41.927Z,11.35
2019-03-20T03:44:11.308Z,9.58
2019-03-20T03:46:40.690Z,6.30
2019-03-20T03:49:10.058Z,7.97
2019-03-20T03:51:39.482Z,6.90
2019-03-20T03:54:08.846Z,10.98
2019-03-20T03:56:38.597Z,10.38
2019-03-20T03:59:08.049Z,15.38
2019-03-20T04:01:37.436Z,11.73
2019-03-20T04:04:06.827Z,6.90
2019-03-20T04:06:37.209Z,14.00
2019-03-20T04:09:07.336Z,10.48
2019-03-20T04:11:36.723Z,8.98
2019-03-20T04:14:06.129Z,16.75
2019-03-20T04:16:35.516Z,7.53
2019-03-20T04:19:05.054Z,11.33
2019-03-20T04:21:35.477Z,7.10
2019-03-20T04:24:05.004Z,7.08
2019-03-20T04:26:34.394Z,13.65
2019-03-20T04:29:04.429Z,9.80
2019-03-20T04:31:33.837Z,7.87
2019-03-20T04:34:03.200Z,9.68
2019-03-20T04:36:32.578Z,9.98
2019-03-20T04:39:01.959Z,11.40
2019-03-20T04:41:31.620Z,20.27
2019-03-20T04:44:01.006Z,13.37
2019-03-20T04:46:30.382Z,13.32
2019-03-20T04:49:00.842Z,17.30
2019-03-20T04:51:30.287Z,17.77
2019-03-20T04:53:59.670Z,12.70
2019-03-20T04:56:29.053Z,14.65
2019-03-20T04:58:58.452Z,10.45
2019-03-20T05:01:27.854Z,14.10
2019-03-20T05:03:57.258Z,9.85
2019-03-20T05:06:26.673Z,12.03
2019-03-20T05:08:56.048Z,18.57
2019-03-20T05:11:25.437Z,10.70
2019-03-20T05:13:54.826Z,14.33
2019-03-20T05:16:24.210Z,16.23
2019-03-20T05:18:53.602Z,18.20
2019-03-20T05:21:22.991Z,10.23
2019-03-20T05:23:52.418Z,11.87
2019-03-20T05:26:21.795Z,11.43
2019-03-20T05:28:51.459Z,11.43
2019-03-20T05:31:20.826Z,9.60
2019-03-20T05:33:50.205Z,11.03
2019-03-20T05:36:19.667Z,18.40
2019-03-20T05:38:49.045Z,18.13
2019-03-20T05:41:18.432Z,11.90
2019-03-20T05:43:47.810Z,17.02
2019-03-20T05:46:17.218Z,20.52
2019-03-20T05:48:46.600Z,16.60
2019-03-20T05:51:15.990Z,18.87
2019-03-20T05:53:45.366Z,21.35
2019-03-20T05:56:14.761Z,29.50
2019-03-20T05:58:44.630Z,25.86
2019-03-20T06:01:14.682Z,13.55
2019-03-20T06:03:45.135Z,15.26
2019-03-20T06:06:15.359Z,11.28
2019-03-20T06:08:45.719Z,20.30
2019-03-20T06:11:15.739Z,16.85
2019-03-20T06:13:45.135Z,19.02
2019-03-20T06:16:14.514Z,14.55
2019-03-20T06:18:43.954Z,20.27
2019-03-20T06:21:13.348Z,16.02
2019-03-20T06:23:42.730Z,14.87
2019-03-20T06:26:12.120Z,11.57
2019-03-20T06:28:41.796Z,20.82
2019-03-20T06:31:11.171Z,18.73
2019-03-20T06:33:40.627Z,15.60
2019-03-20T06:36:10.009Z,22.60
2019-03-20T06:38:39.407Z,14.83
2019-03-20T06:41:08.780Z,11.57
2019-03-20T06:43:38.156Z,11.93
2019-03-20T06:46:07.544Z,17.60
2019-03-20T06:48:36.929Z,16.77
2019-03-20T06:51:06.298Z,19.20
2019-03-20T06:53:36.959Z,11.93
2019-03-20T06:56:06.294Z,11.13
2019-03-20T06:58:35.760Z,11.70
2019-03-20T07:01:14.182Z,16.00
2019-03-20T07:04:10.469Z,10.13
2019-03-20T07:06:54.891Z,15.70
2019-03-20T07:09:44.208Z,11.00
2019-03-20T07:12:13.624Z,15.20
2019-03-20T07:14:43.036Z,10.50
2019-03-20T07:17:12.490Z,8.17
2019-03-20T07:19:41.875Z,12.50
2019-03-20T07:22:11.261Z,13.63
2019-03-20T07:24:40.639Z,9.35
2019-03-20T07:27:10.035Z,8.65
2019-03-20T07:29:39.424Z,10.93
2019-03-20T07:32:08.820Z,7.90
2019-03-20T07:34:38.195Z,11.95
2019-03-20T07:37:07.584Z,9.80
2019-03-20T07:39:36.965Z,6.33
2019-03-20T07:42:06.705Z,9.63
2019-03-20T07:44:36.074Z,9.65
2019-03-20T07:47:06.589Z,7.20
2019-03-20T07:49:36.274Z,5.25
2019-03-20T07:52:05.898Z,10.98
2019-03-20T07:54:36.243Z,6.53
2019-03-20T07:57:05.624Z,6.55
2019-03-20T07:59:35.176Z,8.53
2019-03-20T08:02:04.632Z,10.47
2019-03-20T08:04:34.019Z,7.74
2019-03-20T08:07:03.400Z,7.40
2019-03-20T08:09:32.881Z,11.57
2019-03-20T08:12:02.343Z,5.80
2019-03-20T08:14:31.727Z,8.33
2019-03-20T08:17:01.404Z,5.67
2019-03-20T08:19:31.734Z,5.72
2019-03-20T08:22:02.035Z,7.17
2019-03-20T08:24:32.258Z,7.97
2019-03-20T08:27:01.638Z,8.45
2019-03-20T08:29:31.018Z,7.05
2019-03-20T08:32:00.576Z,3.83
2019-03-20T08:34:29.998Z,5.72
2019-03-20T08:36:59.441Z,5.78
2019-03-20T08:39:28.827Z,9.00
2019-03-20T08:44:46.517Z,6.75
2019-03-20T08:47:17.015Z,6.73
2019-03-20T08:49:46.436Z,12.70
2019-03-20T08:52:15.812Z,4.30
2019-03-20T08:54:45.206Z,5.37
2019-03-20T08:57:14.636Z,5.10
2019-03-20T08:59:44.076Z,5.77
2019-03-20T09:02:13.525Z,9.50
2019-03-20T09:04:42.905Z,7.65
2019-03-20T09:07:12.291Z,7.75
2019-03-20T09:09:41.688Z,9.40
2019-03-20T09:14:59.344Z,7.05
2019-03-20T09:17:28.741Z,7.60
2019-03-20T09:19:58.134Z,5.05
2019-03-20T09:22:28.483Z,6.78
2019-03-20T09:24:57.867Z,5.00
2019-03-20T09:27:27.314Z,5.35
2019-03-20T09:29:56.697Z,5.20
2019-03-20T09:32:26.080Z,4.20
2019-03-20T09:34:55.459Z,5.70
2019-03-20T09:37:24.841Z,7.60
2019-03-20T09:39:54.222Z,4.78
2019-03-20T09:42:23.605Z,8.18
2019-03-20T09:44:53.007Z,6.17
2019-03-20T09:47:22.389Z,6.42
2019-03-20T09:49:51.829Z,5.72
2019-03-20T09:52:22.191Z,9.10
2019-03-20T09:54:51.647Z,8.43
2019-03-20T09:57:21.035Z,7.25
2019-03-20T09:59:50.428Z,5.22
2019-03-20T10:02:20.046Z,8.63
2019-03-20T10:04:49.421Z,9.30
2019-03-20T10:07:18.873Z,5.70
2019-03-20T10:09:48.250Z,5.85
2019-03-20T10:12:17.682Z,5.47
2019-03-20T10:14:47.100Z,9.15
2019-03-20T10:17:17.414Z,4.67
2019-03-20T10:19:46.799Z,5.75
2019-03-20T10:22:16.784Z,3.52
2019-03-20T10:24:46.161Z,5.30
2019-03-20T10:27:15.557Z,6.00
2019-03-20T10:29:44.935Z,4.08
2019-03-20T10:32:14.324Z,6.00
2019-03-20T10:34:43.712Z,4.15
2019-03-20T10:37:13.097Z,5.62
2019-03-20T10:39:43.452Z,4.70
2019-03-20T10:42:12.848Z,5.10
2019-03-20T10:44:42.229Z,6.30
2019-03-20T10:47:11.830Z,5.62
2019-03-20T10:49:41.176Z,4.65
2019-03-20T10:52:10.560Z,6.00
2019-03-20T10:54:39.952Z,5.12
2019-03-20T10:57:09.325Z,6.40
2019-03-20T10:59:39.685Z,6.80
2019-03-20T11:02:09.232Z,8.58
2019-03-20T11:04:38.700Z,3.22
2019-03-20T11:07:08.072Z,5.65
2019-03-20T11:09:37.475Z,5.85
2019-03-20T11:12:06.843Z,4.65
2019-03-20T11:14:36.235Z,5.80
2019-03-20T11:17:05.695Z,5.40
2019-03-20T11:19:35.183Z,4.58
2019-03-20T11:22:04.642Z,8.48
2019-03-20T11:24:34.165Z,5.03
2019-03-20T11:27:03.640Z,7.55
2019-03-20T11:29:33.086Z,10.65
2019-03-20T11:32:02.493Z,6.25
2019-03-20T11:34:31.870Z,4.25
2019-03-20T11:37:01.256Z,7.60
2019-03-20T11:39:30.723Z,2.65
2019-03-20T11:42:00.359Z,5.40
2019-03-20T11:44:29.739Z,4.55
2019-03-20T11:46:59.492Z,5.58
2019-03-20T11:49:28.896Z,8.53
2019-03-20T11:51:58.500Z,5.33
2019-03-20T11:54:27.892Z,5.53
2019-03-20T11:56:57.284Z,4.45
2019-03-20T11:59:26.705Z,5.05
2019-03-20T12:01:56.091Z,6.33
2019-03-20T12:04:26.661Z,6.15
2019-03-20T12:06:56.585Z,6.07
2019-03-20T12:09:25.970Z,5.58
2019-03-20T12:11:55.360Z,3.67
2019-03-20T12:14:24.747Z,5.30
2019-03-20T12:16:54.131Z,5.35
2019-03-20T12:19:23.519Z,9.75
2019-03-20T12:21:54.052Z,7.95
2019-03-20T12:24:23.443Z,7.65
2019-03-20T12:26:52.819Z,6.80
2019-03-20T12:29:22.225Z,7.67
2019-03-20T12:31:52.572Z,8.23
2019-03-20T12:34:22.240Z,6.50
2019-03-20T12:36:51.618Z,5.47
2019-03-20T12:39:20.999Z,3.42
2019-03-20T12:41:50.394Z,6.20
2019-03-20T12:44:19.776Z,4.70
2019-03-20T12:46:49.175Z,6.53
2019-03-20T12:49:18.555Z,9.25
2019-03-20T12:51:47.941Z,3.40
2019-03-20T12:54:17.333Z,6.53
2019-03-20T12:56:46.722Z,4.12
2019-03-20T12:59:17.190Z,7.93
2019-03-20T13:01:46.571Z,5.83
2019-03-20T13:04:15.943Z,5.27
2019-03-20T13:06:45.324Z,6.20
2019-03-20T13:09:14.720Z,4.70
2019-03-20T13:11:44.145Z,5.40
2019-03-20T13:14:13.537Z,5.95
2019-03-20T13:16:43.186Z,4.77
2019-03-20T13:19:12.577Z,4.80
2019-03-20T13:21:43.385Z,4.15
2019-03-20T13:24:13.855Z,9.10
2019-03-20T13:26:43.230Z,7.05
2019-03-20T13:29:12.622Z,5.20
2019-03-20T13:31:42.605Z,6.47
2019-03-20T13:34:12.192Z,6.40
2019-03-20T13:36:41.588Z,7.65
2019-03-20T13:39:11.058Z,7.58
2019-03-20T13:41:40.445Z,8.13
2019-03-20T13:44:09.827Z,5.60
2019-03-20T13:46:39.214Z,7.78
2019-03-20T13:49:08.586Z,5.17
2019-03-20T13:51:37.971Z,22.22
2019-03-20T13:54:07.431Z,4.45
2019-03-20T13:56:36.815Z,5.05
2019-03-20T13:59:06.279Z,6.85
2019-03-20T14:01:35.651Z,5.90
2019-03-20T14:04:05.190Z,4.50
2019-03-20T14:06:34.576Z,5.65
2019-03-20T14:09:05.536Z,7.57
2019-03-20T14:11:35.000Z,3.02
2019-03-20T14:14:04.444Z,5.33
2019-03-20T14:16:33.836Z,7.93
2019-03-20T14:19:03.278Z,7.20
2019-03-20T14:21:32.671Z,6.87
2019-03-20T14:24:03.023Z,7.55
2019-03-20T14:26:32.406Z,6.40
2019-03-20T14:29:03.709Z,5.37
2019-03-20T14:31:33.083Z,4.77
2019-03-20T14:34:02.477Z,8.68
2019-03-20T14:36:31.852Z,7.77
2019-03-20T14:39:01.236Z,9.45
2019-03-20T14:41:32.296Z,8.33
2019-03-20T14:44:01.678Z,6.93
2019-03-20T14:46:31.062Z,6.30
2019-03-20T14:49:00.436Z,6.60
2019-03-20T14:51:29.824Z,8.23
2019-03-20T14:53:59.207Z,7.72
2019-03-20T14:56:28.583Z,6.80
2019-03-20T14:58:57.963Z,8.47
2019-03-20T15:01:28.241Z,7.00
2019-03-20T15:03:57.634Z,9.43
2019-03-20T15:06:27.032Z,7.57
2019-03-20T15:08:56.408Z,10.23
2019-03-20T15:11:26.367Z,10.32
2019-03-20T15:13:56.738Z,9.00
2019-03-20T15:16:26.782Z,6.80
2019-03-20T15:18:56.162Z,7.72
2019-03-20T15:21:25.545Z,9.25
2019-03-20T15:23:54.939Z,8.25
2019-03-20T15:26:24.318Z,7.90
2019-03-20T15:28:53.715Z,9.27
2019-03-20T15:31:23.731Z,5.00
2019-03-20T15:33:53.145Z,8.75
2019-03-20T15:36:22.526Z,11.60
2019-03-20T15:38:51.913Z,9.80
2019-03-20T15:41:21.369Z,8.05
2019-03-20T15:43:50.745Z,7.42
2019-03-20T15:46:20.126Z,8.05
2019-03-20T15:48:49.507Z,6.00
2019-03-20T15:51:18.893Z,7.20
2019-03-20T15:53:48.286Z,11.70
2019-03-20T15:56:17.683Z,8.28
2019-03-20T15:58:47.069Z,9.58
2019-03-20T16:01:16.454Z,10.70
2019-03-20T16:03:47.981Z,9.00
2019-03-20T16:06:17.392Z,9.37
2019-03-20T16:08:46.782Z,11.13
2019-03-20T16:11:17.137Z,13.70
2019-03-20T16:13:46.531Z,15.53
2019-03-20T16:16:16.188Z,11.17
2019-03-20T16:18:45.859Z,8.43
2019-03-20T16:21:15.235Z,11.73
2019-03-20T16:23:44.615Z,9.80
2019-03-20T16:26:14.008Z,10.03
2019-03-20T16:28:43.398Z,9.58
2019-03-20T16:31:12.777Z,6.20
2019-03-20T16:33:42.197Z,8.00
2019-03-20T16:36:11.590Z,13.97
2019-03-20T16:38:40.968Z,12.50
2019-03-20T16:41:16.831Z,6.90
2019-03-20T16:43:41.457Z,11.33
2019-03-20T16:46:11.944Z,9.75
2019-03-20T16:48:41.307Z,14.95
2019-03-20T16:51:10.754Z,9.33
2019-03-20T16:53:40.649Z,6.97
2019-03-20T16:56:11.556Z,11.55
2019-03-20T16:58:41.697Z,7.24
2019-03-20T17:01:11.097Z,7.40
2019-03-20T17:03:40.490Z,5.95
2019-03-20T17:06:09.883Z,8.55
2019-03-20T17:08:40.251Z,10.25
2019-03-20T17:11:09.635Z,11.75
2019-03-20T17:13:39.007Z,11.28
2019-03-20T17:16:09.389Z,8.10
2019-03-20T17:18:38.760Z,10.10
2019-03-20T17:21:08.210Z,8.78
2019-03-20T17:23:37.587Z,15.60
2019-03-20T17:26:07.037Z,11.75
2019-03-20T17:28:36.432Z,13.55
2019-03-20T17:31:05.882Z,16.70
2019-03-20T17:33:36.251Z,15.03
2019-03-20T17:36:05.699Z,11.33
2019-03-20T17:38:35.073Z,11.80
2019-03-20T17:41:04.777Z,17.02
2019-03-20T17:43:34.161Z,15.37
2019-03-20T17:46:03.836Z,25.60
2019-03-20T17:48:33.200Z,35.13
2019-03-20T17:51:02.600Z,30.32
2019-03-20T17:53:31.998Z,33.70
2019-03-20T17:56:01.398Z,26.33
2019-03-20T17:58:30.789Z,34.83
2019-03-20T18:01:00.208Z,33.80
2019-03-20T18:03:30.369Z,29.20
2019-03-20T18:05:59.886Z,22.55
2019-03-20T18:08:29.344Z,27.60
2019-03-20T18:10:58.777Z,20.33
2019-03-20T18:13:28.167Z,22.10
2019-03-20T18:15:57.547Z,20.72
2019-03-20T18:18:26.933Z,21.07
2019-03-20T18:20:56.388Z,30.30
2019-03-20T18:23:25.764Z,19.80
2019-03-20T18:25:55.161Z,23.20
2019-03-20T18:28:25.017Z,24.02
2019-03-20T18:30:54.978Z,26.10
2019-03-20T18:33:24.375Z,24.43
2019-03-20T18:35:53.792Z,19.07
2019-03-20T18:38:23.166Z,25.80
2019-03-20T18:40:52.548Z,18.82
2019-03-20T18:43:21.919Z,24.52
2019-03-20T18:45:52.364Z,24.15
2019-03-20T18:48:21.893Z,18.95
2019-03-20T18:50:51.279Z,18.82
2019-03-20T18:53:20.656Z,19.50
2019-03-20T18:55:50.048Z,25.85
2019-03-20T18:58:19.434Z,24.50
2019-03-20T19:00:48.815Z,19.57
2019-03-20T19:03:35.934Z,17.60
2019-03-20T19:06:14.664Z,20.75
2019-03-20T19:08:44.059Z,14.27
2019-03-20T19:11:13.516Z,21.35
2019-03-20T19:13:42.914Z,24.90
2019-03-20T19:16:12.291Z,18.87
2019-03-20T19:18:41.666Z,20.37
2019-03-20T19:21:11.066Z,19.30
2019-03-20T19:23:40.458Z,18.03
2019-03-20T19:26:09.838Z,26.25
2019-03-20T19:28:39.234Z,27.87
2019-03-20T19:31:09.174Z,25.23
2019-03-20T19:33:39.322Z,25.46
2019-03-20T19:36:09.286Z,19.32
2019-03-20T19:38:39.287Z,24.25
2019-03-20T19:41:09.342Z,22.58
2019-03-20T19:43:39.406Z,20.17
2019-03-20T19:46:09.890Z,20.40
2019-03-20T19:48:39.472Z,25.35
2019-03-20T19:51:09.573Z,24.27
2019-03-20T19:53:39.597Z,27.22
2019-03-20T19:56:09.787Z,29.25
2019-03-20T19:58:39.832Z,21.10
2019-03-20T20:01:10.100Z,23.18
2019-03-20T20:03:39.778Z,22.07
2019-03-20T20:06:11.275Z,24.87
2019-03-20T20:08:40.241Z,18.20
2019-03-20T20:11:09.641Z,20.02
2019-03-20T20:13:39.032Z,22.52
2019-03-20T20:16:08.429Z,18.57
2019-03-20T20:18:37.800Z,17.57
2019-03-20T20:21:07.187Z,18.75
2019-03-20T20:23:36.676Z,14.03
2019-03-20T20:26:06.120Z,14.00
2019-03-20T20:28:35.524Z,16.32
2019-03-20T20:31:04.972Z,19.50
2019-03-20T20:33:34.372Z,14.70
2019-03-20T20:36:03.780Z,15.48
2019-03-20T20:38:33.248Z,14.03
2019-03-20T20:41:02.932Z,19.23
2019-03-20T20:43:32.301Z,15.10
2019-03-20T20:46:01.680Z,17.47
2019-03-20T20:48:31.152Z,21.97
2019-03-20T20:51:00.515Z,18.60
2019-03-20T20:53:29.967Z,15.98
2019-03-20T20:55:59.363Z,22.97
2019-03-20T20:58:29.010Z,18.27
2019-03-20T21:00:58.425Z,16.63
2019-03-20T21:03:27.804Z,21.00
2019-03-20T21:05:57.259Z,27.22
2019-03-20T21:08:26.650Z,21.05
2019-03-20T21:10:56.097Z,19.77
2019-03-20T21:13:25.490Z,17.47
2019-03-20T21:15:54.930Z,23.42
2019-03-20T21:18:43.438Z,17.87
2019-03-20T21:21:13.862Z,20.57
2019-03-20T21:24:19.969Z,19.90
2019-03-20T21:27:26.385Z,14.53
2019-03-20T21:29:58.812Z,14.68
2019-03-20T21:32:51.717Z,18.24
2019-03-20T21:35:56.826Z,16.73
2019-03-20T21:38:25.062Z,14.47
2019-03-20T21:41:19.848Z,16.70
2019-03-20T21:44:26.691Z,18.40
2019-03-20T21:47:18.044Z,18.45
2019-03-20T21:49:47.501Z,17.32
2019-03-20T21:52:16.893Z,10.03
2019-03-20T21:55:08.979Z,16.30
2019-03-20T21:57:47.331Z,13.28
2019-03-20T22:00:47.052Z,13.43
2019-03-20T22:03:17.609Z,19.73
2019-03-20T22:05:59.021Z,17.50
2019-03-20T22:08:28.967Z,19.73
2019-03-20T22:11:01.399Z,20.73
2019-03-20T22:13:51.578Z,23.57
2019-03-20T22:16:35.540Z,21.95
2019-03-20T22:19:19.630Z,22.63
2019-03-20T22:22:17.566Z,19.82
2019-03-20T22:24:55.751Z,23.87
2019-03-20T22:27:47.391Z,14.80
2019-03-20T22:30:16.763Z,19.83
2019-03-20T22:33:04.301Z,16.30
2019-03-20T22:35:42.796Z,20.00
2019-03-20T22:38:15.265Z,17.73
2019-03-20T22:41:08.766Z,20.85
2019-03-20T22:43:47.142Z,21.53
2019-03-20T22:46:49.494Z,15.75
2019-03-20T22:49:33.650Z,14.28
2019-03-20T22:52:18.081Z,22.95
2019-03-20T22:55:06.792Z,15.15
2019-03-20T22:58:00.945Z,16.18
2019-03-20T23:00:32.285Z,18.98
2019-03-20T23:03:05.351Z,19.12
2019-03-20T23:05:34.802Z,18.00
2019-03-20T23:08:14.780Z,18.55
2019-03-20T23:10:47.091Z,17.78
2019-03-20T23:13:19.273Z,15.40
2019-03-20T23:15:47.931Z,20.60
2019-03-20T23:18:17.398Z,18.57
2019-03-20T23:20:46.768Z,15.50
2019-03-20T23:23:16.150Z,16.27
2019-03-20T23:25:45.599Z,19.00
2019-03-20T23:28:15.050Z,14.98
2019-03-20T23:30:44.855Z,11.73
2019-03-20T23:33:14.298Z,17.70
2019-03-20T23:35:43.748Z,16.12
2019-03-20T23:38:13.987Z,16.20
2019-03-20T23:40:43.752Z,11.57
2019-03-20T23:43:13.953Z,17.75
2019-03-20T23:45:44.438Z,20.06
2019-03-20T23:48:37.668Z,16.67
2019-03-20T23:51:19.746Z,23.18
2019-03-20T23:53:51.087Z,14.13
2019-03-20T23:56:20.708Z,16.70
2019-03-20T23:58:50.107Z,16.20
